Trevor, Wisconsin
Current Conditions -  °F | °C
As of 3:53 PM on Tuesday 21 Oct 2014 (Local Time) from KENW Reporting Station
Overcast Overcast  
Wind Chill: 45°   Ceiling: 2500
Heat Index: 49°   Visibility: 10mi
Dew Point: 39°   Wind: 9mph
Humidity: 69%   Direction: 10°N
Pressure: 30.21"   Gusts: NA
Location:  42.51°N, 88.12°W
Report Text: KENW 212053Z 01008KT 10SM OVC025 09/04 A3021 RMK AO2 SLP234 T00940039 53003
Loading
Personal Weather Stations






























Interactive Weather Map
Tropical Storm Tracking
New forecast layout! Learn more

10-Day Weather Forecast

Advertisements
Track Severe Weather on mobile